Main page
METAR-TAF:

METAR-TAF

Airports :

Comandante Gustavo Kraemer Airport

Bagé, Rio Grande do Sul, Brazil

latitude: 31-21S, longitude: 054-07W, elevation: 180 m

Current weather observation

The report was made 29 minutes ago, at 19:00 UTC
Wind 9 kt from the South
Temperature 32°C
Humidity 36%
Pressure 1011 hPa
Visibility 10 km or more
no clouds below 1500 m and no cumulonimbus

METAR: SBBG 291900Z AUTO 17009KT CAVOK 32/15 Q1011

Time: 17:29 (19:29 UTC)

Forecast

The report was made 4 hours and 29 minutes ago, at 15:00 UTC
Forecast valid from 29 at 18 UTC to 30 at 06 UTC
Wind 15 kt from the South/Southeast
Visibility 10 km or more
Scattered clouds at a height of 2500 ft
Probability 30%
from 29 at 18 UTC to 29 at 20 UTC
Wind 15 kt from the South/Southeast with gusts up to 26 kt
Becoming
from 30 at 03 UTC to 30 at 05 UTC
Wind 5 kt from the Southeast

TAF: SBBG 291500Z 2918/3006 15015KT 9999 SCT025 TX34/2918Z TN19/3006Z PROB30 2918/2920 15015G26KT BECMG 3003/3005 13005KT RMK PEW

Weather observations and forecasts of more than 4000 airports (METAR and TAF reports).

The available stations are represented by yellow and red dots on the map.

Hover mouse over dot to see the name of the station.

Then click to see weather observations and forecasts.

To change the map : click on the green buttons with a black cross to zoom in, on the green button with a dash to zoom out, or on the green arrows for adjacent maps.


METAR-TAF: